Richelieu — ZDHS7 — position and weather

sailwx.info

Track history (hours):
 
Tides and Currents Weather Stations Pressure Air Temp Water Temp Dewpoint Dewpoint Depression Visibility Wind Speed Wind Dir Waves Ship Positions

Richelieu

Last reported at 2017-Dec-11 15:14 UTC. Time now 2017-Dec-12 14:19 UTC.
Position N 56°07' E 010°23'.

Length 89 m; draft 3.5 m.

Type: Cargo ship. MMSI: 236354000.

Date/timePositionNaut miles runAvg speedWind from/ knotsBaromVisibWave heightAir tempDewpointWater temp
2017-Dec-11 15:14N 56°07' E 010°23'210.6
2017-Dec-11 15:01N 56°08' E 010°19'3 0.1
2017-Dec-09 23:11N 56°09' E 010°13'1 3.4
2017-Dec-09 23:00N 56°09' E 010°14'5 4.4
2017-Dec-09 21:46N 56°07' E 010°23'61 8.0
2017-Dec-09 14:06N 56°13' E 012°13'1 5.2
2017-Dec-09 14:00N 56°13' E 012°13'2 5.0
2017-Dec-09 13:30N 56°13' E 012°18'2 4.1
2017-Dec-09 13:01N 56°12' E 012°21'2 4.4
2017-Dec-09 12:30N 56°11' E 012°24'3 6.2
2017-Dec-09 12:00N 56°09' E 012°29'4 7.5
2017-Dec-09 11:30N 56°07' E 012°34'3 6.8
2017-Dec-09 11:01N 56°04' E 012°38'4 7.0
2017-Dec-09 10:31N 56°01' E 012°40'5 9.1
2017-Dec-09 10:00N 55°57' E 012°43'4 8.4
2017-Dec-09 09:31N 55°52' E 012°44'5 9.1
2017-Dec-09 09:01N 55°48' E 012°44'5 9.3
2017-Dec-09 08:30N 55°43' E 012°42'4 8.7
2017-Dec-09 08:01N 55°39' E 012°42'4 8.1
2017-Dec-09 07:30N 55°35' E 012°42'4 8.2
2017-Dec-09 07:00N 55°31' E 012°43'5 8.8
2017-Dec-09 06:29N 55°26' E 012°42'6 9.5
2017-Dec-09 05:51N 55°20' E 012°40'8 6.6
2017-Dec-09 04:39N 55°16' E 012°52'2 6.8
2017-Dec-09 04:24N 55°16' E 012°55'71 7.0
2017-Dec-08 18:15N 54°40' E 014°42'3 8.1
2017-Dec-08 17:50N 54°40' E 014°47'3 7.9
2017-Dec-08 17:30N 54°41' E 014°52'5 7.7
2017-Dec-08 16:55N 54°41' E 014°59'103 7.0
2017-Dec-08 02:11N 54°57' E 017°55'1 8.0
2017-Dec-08 02:00N 54°58' E 017°58'4 7.8
2017-Dec-08 01:30N 54°58' E 018°04'4 7.9
2017-Dec-08 01:01N 54°58' E 018°11'4 8.0
2017-Dec-08 00:30N 54°58' E 018°18'4 7.9
2017-Dec-08 00:00N 54°58' E 018°25'4 8.2
2017-Dec-07 23:30N 54°57' E 018°32'4 8.3
2017-Dec-07 23:01N 54°56' E 018°39'4 8.5
2017-Dec-07 22:30N 54°54' E 018°46'4 8.8
2017-Dec-07 22:00N 54°51' E 018°51'5 9.0
2017-Dec-07 21:30N 54°48' E 018°56'4 8.7
2017-Dec-07 21:01N 54°44' E 018°59'5 9.7
2017-Dec-07 20:30N 54°39' E 018°57'5 9.6
2017-Dec-07 20:00N 54°35' E 018°53'5 9.9
2017-Dec-07 19:31N 54°31' E 018°48'5 9.8
2017-Dec-07 19:01N 54°28' E 018°42'3 6.7
2017-Dec-07 18:30N 54°24' E 018°40'1 1.2
2017-Dec-07 17:57N 54°24' E 018°40'0 0.0
2017-Dec-07 17:27N 54°24' E 018°40'0 0.0
2017-Dec-07 17:00N 54°24' E 018°40'0 0.0
2017-Dec-07 16:30N 54°24' E 018°40'0 0.0
2017-Dec-07 15:57N 54°24' E 018°40'0 0.0
2017-Dec-07 15:30N 54°24' E 018°40'0 0.0
2017-Dec-07 15:00N 54°24' E 018°40'0 0.0
2017-Dec-07 14:30N 54°24' E 018°40'0 0.0
2017-Dec-07 14:00N 54°24' E 018°40'0 0.0
2017-Dec-07 13:30N 54°24' E 018°40'0 0.0
2017-Dec-07 13:00N 54°24' E 018°40'0 0.0
2017-Dec-07 12:30N 54°24' E 018°40'0 0.0
2017-Dec-07 12:00N 54°24' E 018°40'0 0.0
2017-Dec-07 11:27N 54°24' E 018°40'0 0.0
2017-Dec-07 11:00N 54°24' E 018°40'0 0.0
2017-Dec-07 10:30N 54°24' E 018°40'0 0.0
2017-Dec-07 09:57N 54°24' E 018°40'0 0.0
2017-Dec-07 09:30N 54°24' E 018°40'0 0.0
2017-Dec-07 09:00N 54°24' E 018°40'0 0.0
2017-Dec-07 08:30N 54°24' E 018°40'0 0.0
2017-Dec-07 08:00N 54°24' E 018°40'0 0.0
2017-Dec-07 07:30N 54°24' E 018°40'0 0.0
2017-Dec-07 07:00N 54°24' E 018°40'0 0.0
2017-Dec-07 06:30N 54°24' E 018°40'0 0.0
2017-Dec-07 06:00N 54°24' E 018°40'0 0.0
2017-Dec-07 05:30N 54°24' E 018°40'0 0.0
2017-Dec-07 05:00N 54°24' E 018°40'0 0.0
2017-Dec-07 04:30N 54°24' E 018°40'0 0.0
2017-Dec-07 04:00N 54°24' E 018°40'0 0.0
2017-Dec-07 03:30N 54°24' E 018°40'0 0.0
2017-Dec-07 03:00N 54°24' E 018°40'0 0.0
2017-Dec-07 02:30N 54°24' E 018°40'0 0.0
2017-Dec-07 02:00N 54°24' E 018°40'0 0.0
2017-Dec-07 01:30N 54°24' E 018°40'0 0.0
2017-Dec-07 01:00N 54°24' E 018°40'0 0.0
2017-Dec-07 00:30N 54°24' E 018°40'0 0.0
2017-Dec-07 00:00N 54°24' E 018°40'0 0.0
2017-Dec-06 23:30N 54°24' E 018°40'0 0.0
2017-Dec-06 23:00N 54°24' E 018°40'0 0.0
2017-Dec-06 22:30N 54°24' E 018°40'0 0.0
2017-Dec-06 22:00N 54°24' E 018°40'0 0.0
2017-Dec-06 21:30N 54°24' E 018°40'0 0.0
2017-Dec-06 21:00N 54°24' E 018°40'  
2017-Dec-01 18:07N 56°09' E 010°14'0 3.9
2017-Dec-01 18:01N 56°09' E 010°14'1 2.9
2017-Dec-01 17:30N 56°08' E 010°17'0 1.0
2017-Dec-01 17:00N 56°08' E 010°17'1 1.5
2017-Dec-01 16:28N 56°08' E 010°18'  
Track history (hours):
 
Tides and Currents Weather Stations Pressure Air Temp Water Temp Dewpoint Dewpoint Depression Visibility Wind Speed Wind Dir Waves Ship Positions

Richelieu

Last reported at 2017-Dec-11 15:14 UTC. Time now 2017-Dec-12 14:19 UTC.
Position N 56°07' E 010°23'.

Length 89 m; draft 3.5 m.

Type: Cargo ship. MMSI: 236354000.

Date/timePositionNaut miles runAvg speedWind from/ knotsBaromVisibWave heightAir tempDewpointWater temp
2017-Dec-11 15:14N 56°07' E 010°23'210.6
2017-Dec-11 15:01N 56°08' E 010°19'3 0.1
2017-Dec-09 23:11N 56°09' E 010°13'1 3.4
2017-Dec-09 23:00N 56°09' E 010°14'5 4.4
2017-Dec-09 21:46N 56°07' E 010°23'61 8.0
2017-Dec-09 14:06N 56°13' E 012°13'1 5.2
2017-Dec-09 14:00N 56°13' E 012°13'2 5.0
2017-Dec-09 13:30N 56°13' E 012°18'2 4.1
2017-Dec-09 13:01N 56°12' E 012°21'2 4.4
2017-Dec-09 12:30N 56°11' E 012°24'3 6.2
2017-Dec-09 12:00N 56°09' E 012°29'4 7.5
2017-Dec-09 11:30N 56°07' E 012°34'3 6.8
2017-Dec-09 11:01N 56°04' E 012°38'4 7.0
2017-Dec-09 10:31N 56°01' E 012°40'5 9.1
2017-Dec-09 10:00N 55°57' E 012°43'4 8.4
2017-Dec-09 09:31N 55°52' E 012°44'5 9.1
2017-Dec-09 09:01N 55°48' E 012°44'5 9.3
2017-Dec-09 08:30N 55°43' E 012°42'4 8.7
2017-Dec-09 08:01N 55°39' E 012°42'4 8.1
2017-Dec-09 07:30N 55°35' E 012°42'4 8.2
2017-Dec-09 07:00N 55°31' E 012°43'5 8.8
2017-Dec-09 06:29N 55°26' E 012°42'6 9.5
2017-Dec-09 05:51N 55°20' E 012°40'8 6.6
2017-Dec-09 04:39N 55°16' E 012°52'2 6.8
2017-Dec-09 04:24N 55°16' E 012°55'71 7.0
2017-Dec-08 18:15N 54°40' E 014°42'3 8.1
2017-Dec-08 17:50N 54°40' E 014°47'3 7.9
2017-Dec-08 17:30N 54°41' E 014°52'5 7.7
2017-Dec-08 16:55N 54°41' E 014°59'103 7.0
2017-Dec-08 02:11N 54°57' E 017°55'1 8.0
2017-Dec-08 02:00N 54°58' E 017°58'4 7.8
2017-Dec-08 01:30N 54°58' E 018°04'4 7.9
2017-Dec-08 01:01N 54°58' E 018°11'4 8.0
2017-Dec-08 00:30N 54°58' E 018°18'4 7.9
2017-Dec-08 00:00N 54°58' E 018°25'4 8.2
2017-Dec-07 23:30N 54°57' E 018°32'4 8.3
2017-Dec-07 23:01N 54°56' E 018°39'4 8.5
2017-Dec-07 22:30N 54°54' E 018°46'4 8.8
2017-Dec-07 22:00N 54°51' E 018°51'5 9.0
2017-Dec-07 21:30N 54°48' E 018°56'4 8.7
2017-Dec-07 21:01N 54°44' E 018°59'5 9.7
2017-Dec-07 20:30N 54°39' E 018°57'5 9.6
2017-Dec-07 20:00N 54°35' E 018°53'5 9.9
2017-Dec-07 19:31N 54°31' E 018°48'5 9.8
2017-Dec-07 19:01N 54°28' E 018°42'3 6.7
2017-Dec-07 18:30N 54°24' E 018°40'1 1.2
2017-Dec-07 17:57N 54°24' E 018°40'0 0.0
2017-Dec-07 17:27N 54°24' E 018°40'0 0.0
2017-Dec-07 17:00N 54°24' E 018°40'0 0.0
2017-Dec-07 16:30N 54°24' E 018°40'0 0.0
2017-Dec-07 15:57N 54°24' E 018°40'0 0.0
2017-Dec-07 15:30N 54°24' E 018°40'0 0.0
2017-Dec-07 15:00N 54°24' E 018°40'0 0.0
2017-Dec-07 14:30N 54°24' E 018°40'0 0.0
2017-Dec-07 14:00N 54°24' E 018°40'0 0.0
2017-Dec-07 13:30N 54°24' E 018°40'0 0.0
2017-Dec-07 13:00N 54°24' E 018°40'0 0.0
2017-Dec-07 12:30N 54°24' E 018°40'0 0.0
2017-Dec-07 12:00N 54°24' E 018°40'0 0.0
2017-Dec-07 11:27N 54°24' E 018°40'0 0.0
2017-Dec-07 11:00N 54°24' E 018°40'0 0.0
2017-Dec-07 10:30N 54°24' E 018°40'0 0.0
2017-Dec-07 09:57N 54°24' E 018°40'0 0.0
2017-Dec-07 09:30N 54°24' E 018°40'0 0.0
2017-Dec-07 09:00N 54°24' E 018°40'0 0.0
2017-Dec-07 08:30N 54°24' E 018°40'0 0.0
2017-Dec-07 08:00N 54°24' E 018°40'0 0.0
2017-Dec-07 07:30N 54°24' E 018°40'0 0.0
2017-Dec-07 07:00N 54°24' E 018°40'0 0.0
2017-Dec-07 06:30N 54°24' E 018°40'0 0.0
2017-Dec-07 06:00N 54°24' E 018°40'0 0.0
2017-Dec-07 05:30N 54°24' E 018°40'0 0.0
2017-Dec-07 05:00N 54°24' E 018°40'0 0.0
2017-Dec-07 04:30N 54°24' E 018°40'0 0.0
2017-Dec-07 04:00N 54°24' E 018°40'0 0.0
2017-Dec-07 03:30N 54°24' E 018°40'0 0.0
2017-Dec-07 03:00N 54°24' E 018°40'0 0.0
2017-Dec-07 02:30N 54°24' E 018°40'0 0.0
2017-Dec-07 02:00N 54°24' E 018°40'0 0.0
2017-Dec-07 01:30N 54°24' E 018°40'0 0.0
2017-Dec-07 01:00N 54°24' E 018°40'0 0.0
2017-Dec-07 00:30N 54°24' E 018°40'0 0.0
2017-Dec-07 00:00N 54°24' E 018°40'0 0.0
2017-Dec-06 23:30N 54°24' E 018°40'0 0.0
2017-Dec-06 23:00N 54°24' E 018°40'0 0.0
2017-Dec-06 22:30N 54°24' E 018°40'0 0.0
2017-Dec-06 22:00N 54°24' E 018°40'0 0.0
2017-Dec-06 21:30N 54°24' E 018°40'0 0.0
2017-Dec-06 21:00N 54°24' E 018°40'  
2017-Dec-01 18:07N 56°09' E 010°14'0 3.9
2017-Dec-01 18:01N 56°09' E 010°14'1 2.9
2017-Dec-01 17:30N 56°08' E 010°17'0 1.0
2017-Dec-01 17:00N 56°08' E 010°17'1 1.5
2017-Dec-01 16:28N 56°08' E 010°18'  

Dump ship's entire track history